sensor_id;sensor_type;location;lat;lon;timestamp;P1;durP1;ratioP1;P2;durP2;ratioP2
3875;SDS011;1953;51.222;6.624;2023-04-16T00:04:13;27.07;;;11.57;;
3875;SDS011;1953;51.222;6.624;2023-04-16T00:10:52;22.80;;;11.67;;
3875;SDS011;1953;51.222;6.624;2023-04-16T00:15:35;22.57;;;12.23;;
3875;SDS011;1953;51.222;6.624;2023-04-16T00:20:17;21.23;;;12.70;;
3875;SDS011;1953;51.222;6.624;2023-04-16T00:25:00;24.03;;;12.63;;
3875;SDS011;1953;51.222;6.624;2023-04-16T00:29:44;27.07;;;13.20;;
3875;SDS011;1953;51.222;6.624;2023-04-16T00:34:27;30.60;;;13.00;;
3875;SDS011;1953;51.222;6.624;2023-04-16T00:39:10;23.07;;;12.63;;
3875;SDS011;1953;51.222;6.624;2023-04-16T00:43:52;26.30;;;13.10;;
3875;SDS011;1953;51.222;6.624;2023-04-16T00:48:37;32.67;;;13.63;;
3875;SDS011;1953;51.222;6.624;2023-04-16T00:53:21;27.70;;;12.13;;
3875;SDS011;1953;51.222;6.624;2023-04-16T00:58:04;28.40;;;12.57;;
3875;SDS011;1953;51.222;6.624;2023-04-16T01:02:46;24.33;;;12.17;;
3875;SDS011;1953;51.222;6.624;2023-04-16T01:07:30;21.47;;;12.07;;
3875;SDS011;1953;51.222;6.624;2023-04-16T01:12:13;25.83;;;13.17;;
3875;SDS011;1953;51.222;6.624;2023-04-16T01:16:55;20.20;;;12.50;;
3875;SDS011;1953;51.222;6.624;2023-04-16T01:21:39;30.07;;;13.50;;
3875;SDS011;1953;51.222;6.624;2023-04-16T01:26:22;25.87;;;13.10;;
3875;SDS011;1953;51.222;6.624;2023-04-16T01:31:04;24.87;;;12.93;;
3875;SDS011;1953;51.222;6.624;2023-04-16T01:35:47;24.43;;;13.60;;
3875;SDS011;1953;51.222;6.624;2023-04-16T01:40:31;25.50;;;14.37;;
3875;SDS011;1953;51.222;6.624;2023-04-16T01:45:13;31.27;;;14.83;;
3875;SDS011;1953;51.222;6.624;2023-04-16T01:49:56;25.13;;;14.30;;
3875;SDS011;1953;51.222;6.624;2023-04-16T01:54:40;28.30;;;14.53;;
3875;SDS011;1953;51.222;6.624;2023-04-16T01:59:24;33.27;;;16.60;;
3875;SDS011;1953;51.222;6.624;2023-04-16T02:04:07;29.57;;;13.83;;
3875;SDS011;1953;51.222;6.624;2023-04-16T02:08:49;32.77;;;15.10;;
3875;SDS011;1953;51.222;6.624;2023-04-16T02:13:32;31.80;;;16.30;;
3875;SDS011;1953;51.222;6.624;2023-04-16T02:18:16;31.40;;;14.93;;
3875;SDS011;1953;51.222;6.624;2023-04-16T02:22:58;36.43;;;16.67;;
3875;SDS011;1953;51.222;6.624;2023-04-16T02:27:41;35.03;;;15.50;;
3875;SDS011;1953;51.222;6.624;2023-04-16T02:32:24;32.03;;;16.70;;
3875;SDS011;1953;51.222;6.624;2023-04-16T02:37:08;32.87;;;16.30;;
3875;SDS011;1953;51.222;6.624;2023-04-16T02:41:50;34.73;;;16.90;;
3875;SDS011;1953;51.222;6.624;2023-04-16T02:46:33;39.93;;;17.93;;
3875;SDS011;1953;51.222;6.624;2023-04-16T02:51:15;39.83;;;18.87;;
3875;SDS011;1953;51.222;6.624;2023-04-16T02:55:59;36.80;;;18.57;;
3875;SDS011;1953;51.222;6.624;2023-04-16T03:00:42;35.10;;;18.43;;
3875;SDS011;1953;51.222;6.624;2023-04-16T03:05:24;46.63;;;17.80;;
3875;SDS011;1953;51.222;6.624;2023-04-16T03:10:07;45.67;;;19.87;;
3875;SDS011;1953;51.222;6.624;2023-04-16T03:14:52;44.90;;;20.17;;
3875;SDS011;1953;51.222;6.624;2023-04-16T03:19:35;49.43;;;20.20;;
3875;SDS011;1953;51.222;6.624;2023-04-16T03:24:18;43.90;;;19.27;;
3875;SDS011;1953;51.222;6.624;2023-04-16T03:29:00;43.03;;;18.87;;
3875;SDS011;1953;51.222;6.624;2023-04-16T03:33:44;41.00;;;19.80;;
3875;SDS011;1953;51.222;6.624;2023-04-16T03:38:27;44.27;;;19.40;;
3875;SDS011;1953;51.222;6.624;2023-04-16T03:43:10;41.53;;;19.23;;
3875;SDS011;1953;51.222;6.624;2023-04-16T03:47:52;45.57;;;19.80;;
3875;SDS011;1953;51.222;6.624;2023-04-16T03:52:36;44.67;;;20.10;;
3875;SDS011;1953;51.222;6.624;2023-04-16T03:57:19;45.20;;;19.67;;
3875;SDS011;1953;51.222;6.624;2023-04-16T04:02:01;44.40;;;20.60;;
3875;SDS011;1953;51.222;6.624;2023-04-16T04:06:44;49.57;;;19.93;;
3875;SDS011;1953;51.222;6.624;2023-04-16T04:11:28;44.23;;;20.50;;
3875;SDS011;1953;51.222;6.624;2023-04-16T04:16:11;50.33;;;20.73;;
3875;SDS011;1953;51.222;6.624;2023-04-16T04:20:53;47.43;;;20.23;;
3875;SDS011;1953;51.222;6.624;2023-04-16T04:25:36;44.97;;;20.40;;
3875;SDS011;1953;51.222;6.624;2023-04-16T04:30:20;52.17;;;21.00;;
3875;SDS011;1953;51.222;6.624;2023-04-16T04:35:03;44.90;;;21.13;;
3875;SDS011;1953;51.222;6.624;2023-04-16T04:39:46;51.07;;;20.40;;
3875;SDS011;1953;51.222;6.624;2023-04-16T04:44:28;47.70;;;21.13;;
3875;SDS011;1953;51.222;6.624;2023-04-16T04:49:12;54.77;;;21.40;;
3875;SDS011;1953;51.222;6.624;2023-04-16T04:53:55;42.10;;;20.60;;
3875;SDS011;1953;51.222;6.624;2023-04-16T04:58:38;49.03;;;20.70;;
3875;SDS011;1953;51.222;6.624;2023-04-16T05:03:20;56.20;;;21.83;;
3875;SDS011;1953;51.222;6.624;2023-04-16T05:08:04;47.03;;;21.10;;
3875;SDS011;1953;51.222;6.624;2023-04-16T05:12:47;51.50;;;22.30;;
3875;SDS011;1953;51.222;6.624;2023-04-16T05:17:29;50.87;;;21.30;;
3875;SDS011;1953;51.222;6.624;2023-04-16T05:22:12;45.93;;;20.70;;
3875;SDS011;1953;51.222;6.624;2023-04-16T05:26:59;43.03;;;21.07;;
3875;SDS011;1953;51.222;6.624;2023-04-16T05:31:42;45.13;;;21.77;;
3875;SDS011;1953;51.222;6.624;2023-04-16T05:36:25;50.10;;;22.63;;
3875;SDS011;1953;51.222;6.624;2023-04-16T05:41:07;59.77;;;20.30;;
3875;SDS011;1953;51.222;6.624;2023-04-16T05:45:51;47.13;;;20.23;;
3875;SDS011;1953;51.222;6.624;2023-04-16T05:50:34;53.43;;;21.50;;
3875;SDS011;1953;51.222;6.624;2023-04-16T05:55:17;52.40;;;21.00;;
3875;SDS011;1953;51.222;6.624;2023-04-16T06:00:00;44.83;;;20.40;;
3875;SDS011;1953;51.222;6.624;2023-04-16T06:04:44;50.30;;;22.20;;
3875;SDS011;1953;51.222;6.624;2023-04-16T06:09:27;50.77;;;22.67;;
3875;SDS011;1953;51.222;6.624;2023-04-16T06:14:10;50.90;;;22.07;;
3875;SDS011;1953;51.222;6.624;2023-04-16T06:18:52;56.63;;;22.27;;
3875;SDS011;1953;51.222;6.624;2023-04-16T06:23:36;47.63;;;21.40;;
3875;SDS011;1953;51.222;6.624;2023-04-16T06:28:19;54.87;;;21.50;;
3875;SDS011;1953;51.222;6.624;2023-04-16T06:33:01;49.20;;;23.50;;
3875;SDS011;1953;51.222;6.624;2023-04-16T06:37:44;49.07;;;22.13;;
3875;SDS011;1953;51.222;6.624;2023-04-16T06:42:28;50.07;;;21.80;;
3875;SDS011;1953;51.222;6.624;2023-04-16T06:47:11;63.63;;;21.87;;
3875;SDS011;1953;51.222;6.624;2023-04-16T06:51:54;54.00;;;21.17;;
3875;SDS011;1953;51.222;6.624;2023-04-16T06:56:36;54.47;;;21.60;;
3875;SDS011;1953;51.222;6.624;2023-04-16T07:01:20;49.40;;;21.47;;
3875;SDS011;1953;51.222;6.624;2023-04-16T07:06:03;47.97;;;22.33;;
3875;SDS011;1953;51.222;6.624;2023-04-16T07:10:45;52.13;;;23.50;;
3875;SDS011;1953;51.222;6.624;2023-04-16T07:15:28;56.67;;;24.00;;
3875;SDS011;1953;51.222;6.624;2023-04-16T07:20:12;64.17;;;26.40;;
3875;SDS011;1953;51.222;6.624;2023-04-16T07:24:55;59.47;;;26.30;;
3875;SDS011;1953;51.222;6.624;2023-04-16T07:29:37;77.70;;;28.33;;
3875;SDS011;1953;51.222;6.624;2023-04-16T07:34:20;62.37;;;27.60;;
3875;SDS011;1953;51.222;6.624;2023-04-16T07:39:04;67.30;;;29.30;;
3875;SDS011;1953;51.222;6.624;2023-04-16T07:43:47;74.57;;;29.83;;
3875;SDS011;1953;51.222;6.624;2023-04-16T07:48:29;72.73;;;28.17;;
3875;SDS011;1953;51.222;6.624;2023-04-16T07:53:12;68.70;;;28.73;;
3875;SDS011;1953;51.222;6.624;2023-04-16T07:57:55;68.10;;;30.60;;
3875;SDS011;1953;51.222;6.624;2023-04-16T08:02:38;79.37;;;31.87;;
3875;SDS011;1953;51.222;6.624;2023-04-16T08:07:20;57.70;;;29.40;;
3875;SDS011;1953;51.222;6.624;2023-04-16T08:12:03;67.27;;;30.63;;
3875;SDS011;1953;51.222;6.624;2023-04-16T08:16:48;60.90;;;30.47;;
3875;SDS011;1953;51.222;6.624;2023-04-16T08:21:31;58.20;;;29.90;;
3875;SDS011;1953;51.222;6.624;2023-04-16T08:26:14;57.10;;;30.80;;
3875;SDS011;1953;51.222;6.624;2023-04-16T08:30:57;53.43;;;30.10;;
3875;SDS011;1953;51.222;6.624;2023-04-16T08:35:41;54.50;;;31.57;;
3875;SDS011;1953;51.222;6.624;2023-04-16T08:40:23;53.00;;;27.90;;
3875;SDS011;1953;51.222;6.624;2023-04-16T08:45:12;71.70;;;29.60;;
3875;SDS011;1953;51.222;6.624;2023-04-16T08:49:56;60.73;;;30.00;;
3875;SDS011;1953;51.222;6.624;2023-04-16T08:54:42;53.90;;;27.27;;
3875;SDS011;1953;51.222;6.624;2023-04-16T08:59:28;52.43;;;28.10;;
3875;SDS011;1953;51.222;6.624;2023-04-16T09:04:11;54.23;;;26.20;;
3875;SDS011;1953;51.222;6.624;2023-04-16T09:08:55;54.03;;;27.60;;
3875;SDS011;1953;51.222;6.624;2023-04-16T09:13:41;53.93;;;28.00;;
3875;SDS011;1953;51.222;6.624;2023-04-16T09:18:24;51.77;;;27.70;;
3875;SDS011;1953;51.222;6.624;2023-04-16T09:23:08;52.83;;;28.33;;
3875;SDS011;1953;51.222;6.624;2023-04-16T09:27:51;47.03;;;27.70;;
3875;SDS011;1953;51.222;6.624;2023-04-16T09:32:35;47.47;;;27.77;;
3875;SDS011;1953;51.222;6.624;2023-04-16T09:37:17;49.00;;;26.33;;
3875;SDS011;1953;51.222;6.624;2023-04-16T09:42:03;41.73;;;25.83;;
3875;SDS011;1953;51.222;6.624;2023-04-16T09:46:46;47.10;;;23.90;;
3875;SDS011;1953;51.222;6.624;2023-04-16T09:51:34;39.60;;;25.60;;
3875;SDS011;1953;51.222;6.624;2023-04-16T09:56:18;37.57;;;25.17;;
3875;SDS011;1953;51.222;6.624;2023-04-16T10:01:06;43.13;;;24.30;;
3875;SDS011;1953;51.222;6.624;2023-04-16T10:05:52;42.97;;;24.30;;
3875;SDS011;1953;51.222;6.624;2023-04-16T10:10:36;38.90;;;23.60;;
3875;SDS011;1953;51.222;6.624;2023-04-16T10:15:19;39.73;;;24.97;;
3875;SDS011;1953;51.222;6.624;2023-04-16T10:20:02;38.40;;;24.40;;
3875;SDS011;1953;51.222;6.624;2023-04-16T10:24:46;40.33;;;24.83;;
3875;SDS011;1953;51.222;6.624;2023-04-16T10:29:32;40.23;;;25.23;;
3875;SDS011;1953;51.222;6.624;2023-04-16T10:34:16;39.50;;;24.73;;
3875;SDS011;1953;51.222;6.624;2023-04-16T10:39:00;40.97;;;25.47;;
3875;SDS011;1953;51.222;6.624;2023-04-16T10:43:43;40.33;;;25.30;;
3875;SDS011;1953;51.222;6.624;2023-04-16T10:48:28;35.40;;;24.27;;
3875;SDS011;1953;51.222;6.624;2023-04-16T10:53:18;41.00;;;24.67;;
3875;SDS011;1953;51.222;6.624;2023-04-16T10:58:01;41.63;;;26.17;;
3875;SDS011;1953;51.222;6.624;2023-04-16T11:03:04;37.43;;;24.53;;
3875;SDS011;1953;51.222;6.624;2023-04-16T11:07:47;41.57;;;25.77;;
3875;SDS011;1953;51.222;6.624;2023-04-16T11:12:32;40.73;;;26.87;;
3875;SDS011;1953;51.222;6.624;2023-04-16T11:17:17;39.13;;;24.97;;
3875;SDS011;1953;51.222;6.624;2023-04-16T11:22:00;36.77;;;26.33;;
3875;SDS011;1953;51.222;6.624;2023-04-16T11:26:45;40.47;;;26.20;;
3875;SDS011;1953;51.222;6.624;2023-04-16T11:31:32;39.87;;;27.93;;
3875;SDS011;1953;51.222;6.624;2023-04-16T11:36:14;42.37;;;28.87;;
3875;SDS011;1953;51.222;6.624;2023-04-16T11:40:57;34.70;;;24.17;;
3875;SDS011;1953;51.222;6.624;2023-04-16T11:45:41;31.33;;;22.50;;
3875;SDS011;1953;51.222;6.624;2023-04-16T11:50:38;32.50;;;23.00;;
3875;SDS011;1953;51.222;6.624;2023-04-16T11:55:21;34.73;;;24.57;;
3875;SDS011;1953;51.222;6.624;2023-04-16T12:00:05;32.83;;;24.23;;
3875;SDS011;1953;51.222;6.624;2023-04-16T12:04:54;32.97;;;23.13;;
3875;SDS011;1953;51.222;6.624;2023-04-16T12:11:53;31.43;;;24.33;;
3875;SDS011;1953;51.222;6.624;2023-04-16T12:16:35;33.87;;;25.00;;
3875;SDS011;1953;51.222;6.624;2023-04-16T12:21:18;42.30;;;31.13;;
3875;SDS011;1953;51.222;6.624;2023-04-16T12:26:05;36.10;;;26.27;;
3875;SDS011;1953;51.222;6.624;2023-04-16T12:30:51;34.70;;;25.80;;
3875;SDS011;1953;51.222;6.624;2023-04-16T12:35:33;34.47;;;24.03;;
3875;SDS011;1953;51.222;6.624;2023-04-16T12:40:16;34.60;;;22.50;;
3875;SDS011;1953;51.222;6.624;2023-04-16T12:44:59;26.90;;;21.03;;
3875;SDS011;1953;51.222;6.624;2023-04-16T12:49:43;26.00;;;19.60;;
3875;SDS011;1953;51.222;6.624;2023-04-16T12:54:25;23.80;;;18.97;;
3875;SDS011;1953;51.222;6.624;2023-04-16T12:59:10;25.00;;;19.10;;
3875;SDS011;1953;51.222;6.624;2023-04-16T13:03:53;25.43;;;18.40;;
3875;SDS011;1953;51.222;6.624;2023-04-16T13:08:37;24.13;;;17.17;;
3875;SDS011;1953;51.222;6.624;2023-04-16T13:13:19;20.90;;;16.37;;
3875;SDS011;1953;51.222;6.624;2023-04-16T13:18:02;22.20;;;16.90;;
3875;SDS011;1953;51.222;6.624;2023-04-16T13:22:45;22.20;;;17.10;;
3875;SDS011;1953;51.222;6.624;2023-04-16T13:27:29;32.23;;;17.10;;
3875;SDS011;1953;51.222;6.624;2023-04-16T13:32:11;22.47;;;17.43;;
3875;SDS011;1953;51.222;6.624;2023-04-16T13:36:54;22.50;;;17.83;;
3875;SDS011;1953;51.222;6.624;2023-04-16T13:41:37;22.70;;;17.87;;
3875;SDS011;1953;51.222;6.624;2023-04-16T13:46:20;22.63;;;17.53;;
3875;SDS011;1953;51.222;6.624;2023-04-16T13:51:03;23.70;;;17.00;;
3875;SDS011;1953;51.222;6.624;2023-04-16T13:55:46;25.87;;;17.20;;
3875;SDS011;1953;51.222;6.624;2023-04-16T14:00:29;24.97;;;19.43;;
3875;SDS011;1953;51.222;6.624;2023-04-16T14:05:13;26.77;;;19.60;;
3875;SDS011;1953;51.222;6.624;2023-04-16T14:09:56;24.83;;;18.47;;
3875;SDS011;1953;51.222;6.624;2023-04-16T14:14:38;21.13;;;17.10;;
3875;SDS011;1953;51.222;6.624;2023-04-16T14:19:21;22.80;;;18.63;;
3875;SDS011;1953;51.222;6.624;2023-04-16T14:24:06;24.10;;;18.57;;
3875;SDS011;1953;51.222;6.624;2023-04-16T14:28:50;30.53;;;19.80;;
3875;SDS011;1953;51.222;6.624;2023-04-16T14:33:32;23.83;;;18.30;;
3875;SDS011;1953;51.222;6.624;2023-04-16T14:38:15;22.97;;;18.10;;
3875;SDS011;1953;51.222;6.624;2023-04-16T14:42:59;28.20;;;18.23;;
3875;SDS011;1953;51.222;6.624;2023-04-16T14:47:41;25.20;;;18.40;;
3875;SDS011;1953;51.222;6.624;2023-04-16T14:52:27;24.80;;;18.67;;
3875;SDS011;1953;51.222;6.624;2023-04-16T14:57:11;24.37;;;17.80;;
3875;SDS011;1953;51.222;6.624;2023-04-16T15:01:55;22.97;;;19.77;;
3875;SDS011;1953;51.222;6.624;2023-04-16T15:06:38;24.70;;;19.73;;
3875;SDS011;1953;51.222;6.624;2023-04-16T15:11:21;22.93;;;18.73;;
3875;SDS011;1953;51.222;6.624;2023-04-16T15:16:03;25.37;;;20.00;;
3875;SDS011;1953;51.222;6.624;2023-04-16T15:20:47;25.53;;;20.13;;
3875;SDS011;1953;51.222;6.624;2023-04-16T15:25:31;26.50;;;20.40;;
3875;SDS011;1953;51.222;6.624;2023-04-16T15:30:13;26.47;;;19.40;;
3875;SDS011;1953;51.222;6.624;2023-04-16T15:34:57;23.70;;;18.83;;
3875;SDS011;1953;51.222;6.624;2023-04-16T15:39:41;25.73;;;19.60;;
3875;SDS011;1953;51.222;6.624;2023-04-16T15:44:24;26.13;;;19.77;;
3875;SDS011;1953;51.222;6.624;2023-04-16T15:49:06;27.00;;;20.40;;
3875;SDS011;1953;51.222;6.624;2023-04-16T15:53:49;43.27;;;25.87;;
3875;SDS011;1953;51.222;6.624;2023-04-16T15:58:33;38.57;;;26.07;;
3875;SDS011;1953;51.222;6.624;2023-04-16T16:03:16;39.07;;;25.30;;
3875;SDS011;1953;51.222;6.624;2023-04-16T16:07:59;44.10;;;27.13;;
3875;SDS011;1953;51.222;6.624;2023-04-16T16:12:41;43.23;;;25.73;;
3875;SDS011;1953;51.222;6.624;2023-04-16T16:17:25;48.57;;;26.87;;
3875;SDS011;1953;51.222;6.624;2023-04-16T16:22:08;41.47;;;27.30;;
3875;SDS011;1953;51.222;6.624;2023-04-16T16:26:51;44.40;;;26.90;;
3875;SDS011;1953;51.222;6.624;2023-04-16T16:31:33;42.93;;;25.97;;
3875;SDS011;1953;51.222;6.624;2023-04-16T16:36:17;43.53;;;27.43;;
3875;SDS011;1953;51.222;6.624;2023-04-16T16:40:59;47.10;;;28.47;;
3875;SDS011;1953;51.222;6.624;2023-04-16T16:45:42;48.97;;;26.63;;
3875;SDS011;1953;51.222;6.624;2023-04-16T16:50:24;44.70;;;28.20;;
3875;SDS011;1953;51.222;6.624;2023-04-16T16:55:09;44.20;;;26.40;;
3875;SDS011;1953;51.222;6.624;2023-04-16T16:59:51;48.03;;;27.03;;
3875;SDS011;1953;51.222;6.624;2023-04-16T17:04:35;46.03;;;27.73;;
3875;SDS011;1953;51.222;6.624;2023-04-16T17:09:17;45.93;;;25.83;;
3875;SDS011;1953;51.222;6.624;2023-04-16T17:14:01;44.53;;;25.77;;
3875;SDS011;1953;51.222;6.624;2023-04-16T17:18:44;42.63;;;26.43;;
3875;SDS011;1953;51.222;6.624;2023-04-16T17:23:27;50.00;;;28.87;;
3875;SDS011;1953;51.222;6.624;2023-04-16T17:28:09;45.83;;;28.37;;
3875;SDS011;1953;51.222;6.624;2023-04-16T17:32:53;54.47;;;29.30;;
3875;SDS011;1953;51.222;6.624;2023-04-16T17:37:35;44.80;;;27.17;;
3875;SDS011;1953;51.222;6.624;2023-04-16T17:42:18;45.70;;;27.67;;
3875;SDS011;1953;51.222;6.624;2023-04-16T17:47:00;44.17;;;27.87;;
3875;SDS011;1953;51.222;6.624;2023-04-16T17:51:44;49.43;;;27.10;;
3875;SDS011;1953;51.222;6.624;2023-04-16T17:56:27;48.50;;;28.50;;
3875;SDS011;1953;51.222;6.624;2023-04-16T18:01:09;44.87;;;26.90;;
3875;SDS011;1953;51.222;6.624;2023-04-16T18:05:52;47.97;;;27.67;;
3875;SDS011;1953;51.222;6.624;2023-04-16T18:10:36;45.13;;;27.40;;
3875;SDS011;1953;51.222;6.624;2023-04-16T18:15:19;43.87;;;26.43;;
3875;SDS011;1953;51.222;6.624;2023-04-16T18:20:02;46.70;;;26.77;;
3875;SDS011;1953;51.222;6.624;2023-04-16T18:24:46;40.50;;;24.40;;
3875;SDS011;1953;51.222;6.624;2023-04-16T18:29:30;48.03;;;26.10;;
3875;SDS011;1953;51.222;6.624;2023-04-16T18:34:13;45.60;;;25.60;;
3875;SDS011;1953;51.222;6.624;2023-04-16T18:38:55;48.17;;;28.70;;
3875;SDS011;1953;51.222;6.624;2023-04-16T18:43:38;48.47;;;28.10;;
3875;SDS011;1953;51.222;6.624;2023-04-16T18:48:22;42.83;;;28.13;;
3875;SDS011;1953;51.222;6.624;2023-04-16T18:53:05;49.13;;;28.10;;
3875;SDS011;1953;51.222;6.624;2023-04-16T18:57:47;46.60;;;27.50;;
3875;SDS011;1953;51.222;6.624;2023-04-16T19:02:30;48.40;;;28.33;;
3875;SDS011;1953;51.222;6.624;2023-04-16T19:07:14;47.07;;;28.23;;
3875;SDS011;1953;51.222;6.624;2023-04-16T19:11:56;46.30;;;27.03;;
3875;SDS011;1953;51.222;6.624;2023-04-16T19:16:39;52.80;;;27.60;;
3875;SDS011;1953;51.222;6.624;2023-04-16T19:21:21;51.20;;;28.30;;
3875;SDS011;1953;51.222;6.624;2023-04-16T19:26:05;51.90;;;28.10;;
3875;SDS011;1953;51.222;6.624;2023-04-16T19:30:48;49.90;;;28.67;;
3875;SDS011;1953;51.222;6.624;2023-04-16T19:35:31;47.50;;;27.90;;
3875;SDS011;1953;51.222;6.624;2023-04-16T19:40:14;53.83;;;29.50;;
3875;SDS011;1953;51.222;6.624;2023-04-16T19:44:58;52.50;;;29.07;;
3875;SDS011;1953;51.222;6.624;2023-04-16T19:49:40;50.03;;;28.67;;
3875;SDS011;1953;51.222;6.624;2023-04-16T19:54:23;52.33;;;28.03;;
3875;SDS011;1953;51.222;6.624;2023-04-16T19:59:06;51.73;;;28.63;;
3875;SDS011;1953;51.222;6.624;2023-04-16T20:03:49;53.03;;;27.97;;
3875;SDS011;1953;51.222;6.624;2023-04-16T20:08:32;49.70;;;28.10;;
3875;SDS011;1953;51.222;6.624;2023-04-16T20:13:15;48.37;;;28.37;;
3875;SDS011;1953;51.222;6.624;2023-04-16T20:17:58;53.23;;;27.30;;
3875;SDS011;1953;51.222;6.624;2023-04-16T20:22:42;46.23;;;29.00;;
3875;SDS011;1953;51.222;6.624;2023-04-16T20:27:24;47.40;;;28.53;;
3875;SDS011;1953;51.222;6.624;2023-04-16T20:32:07;49.03;;;28.33;;
3875;SDS011;1953;51.222;6.624;2023-04-16T20:36:49;51.40;;;29.07;;
3875;SDS011;1953;51.222;6.624;2023-04-16T20:41:33;51.17;;;28.47;;
3875;SDS011;1953;51.222;6.624;2023-04-16T20:46:19;50.17;;;28.93;;
3875;SDS011;1953;51.222;6.624;2023-04-16T20:51:05;47.20;;;28.80;;
3875;SDS011;1953;51.222;6.624;2023-04-16T20:55:49;43.70;;;27.07;;
3875;SDS011;1953;51.222;6.624;2023-04-16T21:00:33;49.53;;;28.43;;
3875;SDS011;1953;51.222;6.624;2023-04-16T21:05:15;45.50;;;28.53;;
3875;SDS011;1953;51.222;6.624;2023-04-16T21:10:01;53.90;;;29.53;;
3875;SDS011;1953;51.222;6.624;2023-04-16T21:14:43;48.43;;;28.40;;
3875;SDS011;1953;51.222;6.624;2023-04-16T21:19:27;51.63;;;29.23;;
3875;SDS011;1953;51.222;6.624;2023-04-16T21:24:10;49.60;;;28.83;;
3875;SDS011;1953;51.222;6.624;2023-04-16T21:28:53;57.23;;;31.17;;
3875;SDS011;1953;51.222;6.624;2023-04-16T21:33:35;54.10;;;29.57;;
3875;SDS011;1953;51.222;6.624;2023-04-16T21:38:20;50.97;;;30.27;;
3875;SDS011;1953;51.222;6.624;2023-04-16T21:43:02;52.57;;;29.03;;
3875;SDS011;1953;51.222;6.624;2023-04-16T21:47:45;60.77;;;32.03;;
3875;SDS011;1953;51.222;6.624;2023-04-16T21:52:28;57.00;;;32.20;;
3875;SDS011;1953;51.222;6.624;2023-04-16T21:57:13;53.27;;;30.73;;
3875;SDS011;1953;51.222;6.624;2023-04-16T22:01:56;52.67;;;30.20;;
3875;SDS011;1953;51.222;6.624;2023-04-16T22:06:38;59.63;;;32.40;;
3875;SDS011;1953;51.222;6.624;2023-04-16T22:11:21;58.20;;;32.80;;
3875;SDS011;1953;51.222;6.624;2023-04-16T22:16:05;54.30;;;33.90;;
3875;SDS011;1953;51.222;6.624;2023-04-16T22:20:48;60.00;;;33.53;;
3875;SDS011;1953;51.222;6.624;2023-04-16T22:25:34;58.90;;;34.80;;
3875;SDS011;1953;51.222;6.624;2023-04-16T22:30:16;63.93;;;32.63;;
3875;SDS011;1953;51.222;6.624;2023-04-16T22:35:01;68.90;;;34.90;;
3875;SDS011;1953;51.222;6.624;2023-04-16T22:39:44;70.90;;;34.87;;
3875;SDS011;1953;51.222;6.624;2023-04-16T22:44:26;66.20;;;35.60;;
3875;SDS011;1953;51.222;6.624;2023-04-16T22:49:09;65.20;;;34.83;;
3875;SDS011;1953;51.222;6.624;2023-04-16T22:53:53;73.57;;;36.10;;
3875;SDS011;1953;51.222;6.624;2023-04-16T22:58:36;66.23;;;36.40;;
3875;SDS011;1953;51.222;6.624;2023-04-16T23:03:18;76.20;;;39.27;;
3875;SDS011;1953;51.222;6.624;2023-04-16T23:08:01;73.50;;;36.47;;
3875;SDS011;1953;51.222;6.624;2023-04-16T23:12:45;74.43;;;37.80;;
3875;SDS011;1953;51.222;6.624;2023-04-16T23:17:27;67.77;;;38.27;;
3875;SDS011;1953;51.222;6.624;2023-04-16T23:22:10;73.00;;;39.50;;
3875;SDS011;1953;51.222;6.624;2023-04-16T23:26:52;72.43;;;36.23;;
3875;SDS011;1953;51.222;6.624;2023-04-16T23:31:37;75.57;;;39.20;;
3875;SDS011;1953;51.222;6.624;2023-04-16T23:36:19;84.47;;;38.93;;
3875;SDS011;1953;51.222;6.624;2023-04-16T23:41:02;82.10;;;38.60;;
3875;SDS011;1953;51.222;6.624;2023-04-16T23:45:44;82.77;;;40.60;;
3875;SDS011;1953;51.222;6.624;2023-04-16T23:50:28;83.27;;;40.80;;
3875;SDS011;1953;51.222;6.624;2023-04-16T23:55:11;64.90;;;37.80;;
3875;SDS011;1953;51.222;6.624;2023-04-16T23:59:53;76.07;;;41.00;;
